Aeroporto :
LOGIN :

Iscrizione | Disclaimer

   EN    FR    IT 

 










Sommario :    VFR   VFR Marginale   IFR   IFR Intensivo   IFR Molto Intensivo
Visibilità : 
Base nubi : 
>= 8 km
>= 3000ft
5 / 8 km
1000 / 3000 ft
1500m / 5 km
500 / 1000 ft
800 / 1500m
200 / 500 ft
< 800m
< 200 ft
Simboli :   Temporali  Nebbia  Neve Forte  Precipitazioni Forti  Vento > 20 kt
SIGMETs :   Varie  Temporali  Ghiacco  Turbolenza  Onda orograficha  Ceneri Vulcaniche






- Altitudine del aeroporto : 242 ft
- Codice IATA : DUB


EIDW - Dublin

ULTIMO METAR :
  • 171200Z 19012KT 170V230 9999 SCT020CB BKN060 12/07 Q0996 NOSIG

METARs OBSOLETI :
  • 171130Z 20011KT 170V240 9999 FEW020CB SCT035 BKN070 13/07 Q0996 NOSIG
  • 171100Z 20008KT 160V230 9999 FEW020CB SCT035 BKN120 13/07 Q0996 NOSIG
  • 171030Z 17007KT 120V210 9999 FEW020CB SCT035 BKN120 12/07 Q0996 NOSIG
  • 171000Z 19008KT 150V230 9999 FEW020CB SCT120 13/07 Q0997 NOSIG
  • 170930Z 16007KT 120V220 9999 FEW020CB SCT120 12/07 Q0997 NOSIG

TAF TAF EIDW
Valido dal 17 a 12 ore il 18 a 12 ore UTC


171100Z 1712/1812 18010KT 9999 FEW020
TEMPO 1712/1715 -SHRA SCT020CB
PROB30
TEMPO 1712/1714 19015G25KT 5000 SHRA BKN018CB
BECMG 1720/1722 20006KT
BECMG 1804/1807 16004KT



MetMap, La meteo Aeronautica in un colpo d'occhio ! - Copyright ORBIFLY Dicembre 2007 - Disclaimer

ORBIFLY MET'MAP TEAM :

Programmazione e sviluppo : Alexandra Zaïnal
Concezione e sviluppo : Baudouin d'Aumeries
Co-Programmazione e sviluppo : Marc-Olivier Méhu
Supporto tecnico e logistico : Manuel Goepfert
Aiuto per la traduzione : Arnaldo La Scala

Contatto : metmap@orbifly.com




FONTI E CREDITI :

   NOAA